ヤクーツク の空港の天気 - METARとTAF

ヤクーツク空港 ( UEEE / YKS ) - ロシア ヤクーツク
飛行場実況気象(Metar)
観測時間10/22 20:30 YAKT (10/22 11:30 UTC)
風向・風速北北西 1m/s
視程5000m
天気現象もや
全天の4割程度の雲 雲底高度 120m
気温-15℃
湿度92%
気圧1020hPa
METARUEEE 221130Z 33001MPS 5000 BR SCT004 M15/M16 Q1020 R23L/450150 NOSIG RMK QBB120 QFE756
過去の天気等 Google飛行場航空写真 Wunderground天気予報

過去48時間のMETAR

飛行場予報(TAF)
発表時間: 10/22 20:00 YAKT (10/22 11:00 UTC)
予報対象時間: 22日21時 YAKT ~ 24日3時 YAKT
風向・風速不定 1m/s
視程1000m
天気現象もや
全天を覆う雲 鉛直視程 150m
22日21時 YAKT ~ 23日12時 YAKT に一時的に
視程300m
天気現象氷霧
全天を覆う雲 鉛直視程 60m
TAF UEEE 221100Z 2212/2318 VRB01MPS 1000 BR VV005
TEMPO 2212/2303 0300 FZFG VV002